createdAt,value
2023-02-16T00:02:20.707Z,101978.47
2023-02-16T00:05:22.935Z,101974.94
2023-02-16T00:08:08.224Z,101971.34
2023-02-16T00:11:11.994Z,101973.88
2023-02-16T00:13:57.191Z,101949.91
2023-02-16T00:16:42.562Z,101972.88
2023-02-16T00:19:35.121Z,101960.16
2023-02-16T00:22:20.313Z,101968.38
2023-02-16T00:25:05.733Z,101965.69
2023-02-16T00:27:51.535Z,101957.94
2023-02-16T00:30:36.744Z,101953.53
2023-02-16T00:33:22.058Z,101957.84
2023-02-16T00:36:07.448Z,101964.06
2023-02-16T00:38:52.402Z,101952.84
2023-02-16T00:41:53.821Z,101953.59
2023-02-16T00:44:48.224Z,101954.53
2023-02-16T00:47:41.994Z,101941.63
2023-02-16T00:50:30.156Z,101944.19
2023-02-16T00:53:15.366Z,101946.81
2023-02-16T00:56:00.588Z,101947.72
2023-02-16T00:58:45.863Z,101935.00
2023-02-16T01:01:33.215Z,101926.56
2023-02-16T01:04:22.666Z,101945.56
2023-02-16T01:07:35.100Z,101911.34
2023-02-16T01:10:39.500Z,101939.06
2023-02-16T01:13:27.823Z,101923.47
2023-02-16T01:16:19.807Z,101931.41
2023-02-16T01:19:05.755Z,101926.44
2023-02-16T01:21:50.900Z,101922.31
2023-02-16T01:24:36.192Z,101936.13
2023-02-16T01:27:21.354Z,101935.38
2023-02-16T01:30:11.770Z,101928.59
2023-02-16T01:32:57.066Z,101932.19
2023-02-16T01:35:42.572Z,101935.72
2023-02-16T01:38:28.810Z,101929.91
2023-02-16T01:41:24.839Z,101931.84
2023-02-16T01:44:25.129Z,101932.97
2023-02-16T01:47:26.179Z,101927.03
2023-02-16T01:50:24.100Z,101928.88
2023-02-16T01:53:22.169Z,101926.50
2023-02-16T01:56:18.903Z,101924.78
2023-02-16T01:59:13.440Z,101930.97
2023-02-16T02:02:02.236Z,101918.00
2023-02-16T02:05:13.567Z,101919.06
2023-02-16T02:08:05.872Z,101892.63
2023-02-16T02:11:04.708Z,101912.19
2023-02-16T02:13:55.668Z,101919.25
2023-02-16T02:16:40.968Z,101916.81
2023-02-16T02:19:26.631Z,101905.16
2023-02-16T02:22:39.572Z,101918.03
2023-02-16T02:25:35.744Z,101914.59
2023-02-16T02:28:33.966Z,101921.75
2023-02-16T02:31:28.043Z,101902.09
2023-02-16T02:34:47.315Z,101917.31
2023-02-16T02:37:55.422Z,101913.91
2023-02-16T02:41:13.179Z,101919.84
2023-02-16T02:44:06.298Z,101913.78
2023-02-16T02:46:51.622Z,101894.25
2023-02-16T02:49:37.289Z,101901.34
2023-02-16T02:52:23.086Z,101917.41
2023-02-16T02:55:27.341Z,101920.81
2023-02-16T02:58:32.349Z,101924.22
2023-02-16T03:01:19.602Z,101929.44
2023-02-16T03:04:07.699Z,101918.03
2023-02-16T03:06:55.901Z,101924.22
2023-02-16T03:09:41.117Z,101922.53
2023-02-16T03:12:44.978Z,101902.94
2023-02-16T03:15:31.430Z,101918.88
2023-02-16T03:18:35.882Z,101919.72
2023-02-16T03:21:39.555Z,101876.19
2023-02-16T03:24:47.871Z,101907.59
2023-02-16T03:27:57.077Z,101900.78
2023-02-16T03:30:44.567Z,101901.66
2023-02-16T03:33:30.083Z,101894.78
2023-02-16T03:36:15.271Z,101886.09
2023-02-16T03:39:01.478Z,101879.25
2023-02-16T03:41:50.205Z,101879.44
2023-02-16T03:44:35.162Z,101858.19
2023-02-16T03:47:20.176Z,101866.56
2023-02-16T03:50:05.925Z,101881.00
2023-02-16T03:52:51.149Z,101879.31
2023-02-16T03:55:37.460Z,101888.94
2023-02-16T03:58:24.259Z,101875.22
2023-02-16T04:01:09.681Z,101882.22
2023-02-16T04:03:55.043Z,101853.09
2023-02-16T04:06:40.469Z,101864.88
2023-02-16T04:09:25.479Z,101873.53
2023-02-16T04:12:31.562Z,101870.09
2023-02-16T04:15:26.195Z,101876.16
2023-02-16T04:18:11.531Z,101871.06
2023-02-16T04:20:56.840Z,101869.34
2023-02-16T04:23:42.079Z,101859.78
2023-02-16T04:26:27.313Z,101867.53
2023-02-16T04:29:12.485Z,101852.66
2023-02-16T04:31:58.392Z,101851.88
2023-02-16T04:34:43.629Z,101842.34
2023-02-16T04:37:28.862Z,101838.09
2023-02-16T04:40:15.877Z,101844.97
2023-02-16T04:43:01.118Z,101839.88
2023-02-16T04:45:46.447Z,101841.59
2023-02-16T04:48:31.816Z,101838.09
2023-02-16T04:51:16.849Z,101831.38
2023-02-16T04:54:02.170Z,101827.84
2023-02-16T04:56:48.231Z,101821.91
2023-02-16T04:59:33.504Z,101826.03
2023-02-16T05:02:18.920Z,101833.84
2023-02-16T05:05:04.253Z,101827.97
2023-02-16T05:07:49.466Z,101834.75
2023-02-16T05:10:34.380Z,101838.28
2023-02-16T05:13:38.354Z,101830.75
2023-02-16T05:16:24.571Z,101828.31
2023-02-16T05:19:09.593Z,101813.03
2023-02-16T05:21:54.839Z,101821.72
2023-02-16T05:24:40.761Z,101801.50
2023-02-16T05:27:28.186Z,101811.56
2023-02-16T05:30:14.029Z,101806.34
2023-02-16T05:32:59.124Z,101805.47
2023-02-16T05:35:44.484Z,101806.34
2023-02-16T05:38:29.693Z,101804.72
2023-02-16T05:41:23.473Z,101802.19
2023-02-16T05:44:09.305Z,101818.72
2023-02-16T05:46:54.234Z,101820.56
2023-02-16T05:49:39.514Z,101831.75
2023-02-16T05:52:24.694Z,101819.69
2023-02-16T05:55:10.085Z,101824.28
2023-02-16T05:57:55.395Z,101818.38
2023-02-16T06:00:40.775Z,101801.97
2023-02-16T06:03:25.958Z,101794.44
2023-02-16T06:06:11.366Z,101798.81
2023-02-16T06:08:56.370Z,101800.63
2023-02-16T06:11:41.500Z,101806.50
2023-02-16T06:14:26.935Z,101801.25
2023-02-16T06:17:12.078Z,101804.53
2023-02-16T06:19:57.026Z,101794.09
2023-02-16T06:22:41.848Z,101793.13
2023-02-16T06:25:27.108Z,101798.81
2023-02-16T06:28:12.369Z,101792.53
2023-02-16T06:30:57.461Z,101785.56
2023-02-16T06:33:43.425Z,101787.31
2023-02-16T06:36:28.698Z,101776.00
2023-02-16T06:39:13.751Z,101786.34
2023-02-16T06:41:58.994Z,101785.47
2023-02-16T06:44:44.845Z,101782.88
2023-02-16T06:47:30.159Z,101765.00
2023-02-16T06:50:15.516Z,101794.94
2023-02-16T06:53:00.869Z,101792.41
2023-02-16T06:55:46.522Z,101778.88
2023-02-16T06:58:31.815Z,101799.19
2023-02-16T07:01:22.819Z,101784.63
2023-02-16T07:04:08.046Z,101794.81
2023-02-16T07:06:53.807Z,101807.81
2023-02-16T07:09:39.457Z,101805.25
2023-02-16T07:12:24.782Z,101795.63
2023-02-16T07:15:10.283Z,101807.63
2023-02-16T07:17:55.440Z,101810.31
2023-02-16T07:20:40.535Z,101786.28
2023-02-16T07:23:26.092Z,101792.28
2023-02-16T07:26:11.213Z,101799.94
2023-02-16T07:28:56.642Z,101808.06
2023-02-16T07:31:41.872Z,101811.38
2023-02-16T07:34:27.065Z,101807.09
2023-02-16T07:37:12.417Z,101808.63
2023-02-16T07:39:57.691Z,101820.66
2023-02-16T07:42:43.043Z,101805.97
2023-02-16T07:45:28.699Z,101807.44
2023-02-16T07:48:13.992Z,101799.00
2023-02-16T07:50:59.741Z,101810.56
2023-02-16T07:53:45.112Z,101813.84
2023-02-16T07:56:32.096Z,101791.56
2023-02-16T07:59:17.417Z,101797.31
2023-02-16T08:02:02.842Z,101813.59
2023-02-16T08:04:49.066Z,101822.13
2023-02-16T08:07:34.099Z,101812.34
2023-02-16T08:10:19.371Z,101811.38
2023-02-16T08:13:04.534Z,101816.44
2023-02-16T08:15:49.431Z,101773.63
2023-02-16T08:18:35.414Z,101797.00
2023-02-16T08:21:23.538Z,101802.97
2023-02-16T08:24:13.139Z,101809.78
2023-02-16T08:26:58.292Z,101799.31
2023-02-16T08:29:43.393Z,101807.94
2023-02-16T08:32:28.790Z,101799.97
2023-02-16T08:35:13.998Z,101784.50
2023-02-16T08:38:00.131Z,101812.56
2023-02-16T08:40:50.022Z,101810.66
2023-02-16T08:43:35.370Z,101815.84
2023-02-16T08:46:21.605Z,101807.00
2023-02-16T08:49:08.113Z,101822.41
2023-02-16T08:51:58.603Z,101816.75
2023-02-16T08:54:43.975Z,101800.22
2023-02-16T08:57:29.219Z,101780.31
2023-02-16T09:00:33.485Z,101794.38
2023-02-16T09:03:19.691Z,101785.50
2023-02-16T09:06:06.226Z,101795.00
2023-02-16T09:08:56.909Z,101790.72
2023-02-16T09:11:43.054Z,101781.03
2023-02-16T09:14:28.145Z,101788.66
2023-02-16T09:17:13.411Z,101802.59
2023-02-16T09:19:58.513Z,101788.66
2023-02-16T09:25:30.665Z,101789.28
2023-02-16T09:28:16.042Z,101798.84
2023-02-16T09:31:01.550Z,101791.91
2023-02-16T09:33:46.928Z,101785.00
2023-02-16T09:36:32.464Z,101793.53
2023-02-16T09:39:19.174Z,101797.72
2023-02-16T09:42:24.954Z,101795.88
2023-02-16T09:45:14.222Z,101799.41
2023-02-16T09:47:59.381Z,101792.41
2023-02-16T09:50:53.753Z,101773.41
2023-02-16T09:53:41.791Z,101777.44
2023-02-16T09:56:42.069Z,101782.41
2023-02-16T09:59:39.287Z,101784.91
2023-02-16T10:02:53.150Z,101780.38
2023-02-16T10:06:10.708Z,101773.47
2023-02-16T10:09:02.198Z,101783.16
2023-02-16T10:11:54.442Z,101758.47
2023-02-16T10:14:46.850Z,101780.69
2023-02-16T10:17:38.410Z,101783.19
2023-02-16T10:20:37.277Z,101776.97
2023-02-16T10:23:36.738Z,101778.75
2023-02-16T10:26:57.390Z,101783.16
2023-02-16T10:29:42.708Z,101786.44
2023-02-16T10:32:35.447Z,101783.00
2023-02-16T10:35:38.095Z,101772.69
2023-02-16T10:38:46.515Z,101788.22
2023-02-16T10:41:45.300Z,101791.84
2023-02-16T10:44:45.957Z,101788.38
2023-02-16T10:47:38.275Z,101786.31
2023-02-16T10:50:57.080Z,101755.41
2023-02-16T10:54:00.548Z,101784.25
2023-02-16T10:56:52.475Z,101801.66
2023-02-16T10:59:40.956Z,101763.59
2023-02-16T11:02:37.009Z,101781.97
2023-02-16T11:05:38.100Z,101778.06
2023-02-16T11:08:25.650Z,101781.69
2023-02-16T11:11:12.127Z,101783.16
2023-02-16T11:14:01.409Z,101786.72
2023-02-16T11:16:47.149Z,101770.59
2023-02-16T11:19:34.923Z,101780.16
2023-02-16T11:22:33.234Z,101797.09
2023-02-16T11:25:18.761Z,101797.78
2023-02-16T11:28:05.296Z,101788.41
2023-02-16T11:31:18.848Z,101799.41
2023-02-16T11:34:42.546Z,101776.28
2023-02-16T11:37:33.772Z,101768.69
2023-02-16T11:40:26.763Z,101770.50
2023-02-16T11:43:18.395Z,101755.34
2023-02-16T11:46:06.157Z,101765.69
2023-02-16T11:48:51.848Z,101751.81
2023-02-16T11:51:37.403Z,101756.41
2023-02-16T11:54:23.043Z,101729.13
2023-02-16T11:57:22.999Z,101749.69
2023-02-16T12:00:19.320Z,101744.78
2023-02-16T12:03:26.074Z,101729.91
2023-02-16T12:06:33.650Z,101735.31
2023-02-16T12:09:31.224Z,101718.28
2023-02-16T12:12:34.919Z,101735.91
2023-02-16T12:15:42.385Z,101730.81
2023-02-16T12:18:32.384Z,101734.28
2023-02-16T12:21:21.696Z,101730.22
2023-02-16T12:24:18.449Z,101723.69
2023-02-16T12:27:22.065Z,101725.16
2023-02-16T12:30:36.877Z,101738.00
2023-02-16T12:33:52.429Z,101717.44
2023-02-16T12:36:50.126Z,101735.16
2023-02-16T12:39:40.571Z,101727.34
2023-02-16T12:42:34.813Z,101718.47
2023-02-16T12:45:23.286Z,101719.91
2023-02-16T12:48:26.190Z,101711.88
2023-02-16T12:51:20.247Z,101707.81
2023-02-16T12:54:25.279Z,101705.31
2023-02-16T12:57:16.664Z,101707.16
2023-02-16T13:00:04.849Z,101676.94
2023-02-16T13:02:57.179Z,101693.88
2023-02-16T13:05:45.960Z,101682.31
2023-02-16T13:08:41.199Z,101688.09
2023-02-16T13:11:51.144Z,101685.41
2023-02-16T13:14:39.979Z,101686.34
2023-02-16T13:17:34.009Z,101680.84
2023-02-16T13:20:23.077Z,101670.19
2023-02-16T13:23:22.045Z,101657.34
2023-02-16T13:26:31.235Z,101671.94
2023-02-16T13:29:37.507Z,101667.78
2023-02-16T13:32:48.708Z,101649.59
2023-02-16T13:36:02.914Z,101637.72
2023-02-16T13:39:10.447Z,101649.47
2023-02-16T13:42:29.364Z,101647.50
2023-02-16T13:45:21.814Z,101656.41
2023-02-16T13:48:16.451Z,101662.50
2023-02-16T13:51:05.278Z,101652.75
2023-02-16T13:53:59.220Z,101639.34
2023-02-16T13:56:44.298Z,101628.56
2023-02-16T13:59:29.230Z,101656.13
2023-02-16T14:02:54.411Z,101643.28
2023-02-16T14:05:42.690Z,101652.03
2023-02-16T14:08:29.402Z,101650.88
2023-02-16T14:11:15.545Z,101642.66
2023-02-16T14:14:00.498Z,101636.28
2023-02-16T14:16:45.941Z,101661.22
2023-02-16T14:19:31.152Z,101660.47
2023-02-16T14:22:20.134Z,101635.19
2023-02-16T14:25:28.950Z,101662.50
2023-02-16T14:28:23.270Z,101659.50
2023-02-16T14:31:28.881Z,101656.09
2023-02-16T14:34:31.350Z,101664.16
2023-02-16T14:37:16.962Z,101647.81
2023-02-16T14:40:11.907Z,101653.81
2023-02-16T14:43:02.788Z,101629.91
2023-02-16T14:45:59.120Z,101644.63
2023-02-16T14:48:45.273Z,101642.34
2023-02-16T14:51:39.496Z,101649.09
2023-02-16T14:55:02.426Z,101638.84
2023-02-16T14:57:53.451Z,101638.00
2023-02-16T15:01:26.539Z,101657.50
2023-02-16T15:04:12.588Z,101642.78
2023-02-16T15:07:02.696Z,101643.63
2023-02-16T15:09:57.631Z,101641.84
2023-02-16T15:12:44.013Z,101634.03
2023-02-16T15:15:43.423Z,101626.34
2023-02-16T15:18:38.147Z,101631.84
2023-02-16T15:21:28.387Z,101618.75
2023-02-16T15:24:24.195Z,101630.91
2023-02-16T15:27:20.645Z,101640.63
2023-02-16T15:30:12.487Z,101643.38
2023-02-16T15:33:01.407Z,101640.75
2023-02-16T15:35:53.324Z,101622.03
2023-02-16T15:38:41.867Z,101645.03
2023-02-16T15:41:31.515Z,101643.25
2023-02-16T15:44:36.626Z,101639.72
2023-02-16T15:47:24.728Z,101650.03
2023-02-16T15:50:14.331Z,101645.63
2023-02-16T15:52:59.785Z,101653.06
2023-02-16T15:55:48.130Z,101651.19
2023-02-16T15:58:33.803Z,101652.91
2023-02-16T16:01:34.175Z,101633.97
2023-02-16T16:04:22.590Z,101618.53
2023-02-16T16:07:12.264Z,101626.78
2023-02-16T16:09:59.412Z,101636.53
2023-02-16T16:12:49.347Z,101642.63
2023-02-16T16:15:40.814Z,101640.16
2023-02-16T16:18:37.416Z,101648.81
2023-02-16T16:21:34.180Z,101622.91
2023-02-16T16:24:32.751Z,101617.13
2023-02-16T16:27:29.428Z,101620.03
2023-02-16T16:30:20.732Z,101616.75
2023-02-16T16:33:09.128Z,101624.44
2023-02-16T16:35:54.396Z,101625.78
2023-02-16T16:38:42.583Z,101626.09
2023-02-16T16:41:28.682Z,101620.75
2023-02-16T16:44:34.202Z,101637.03
2023-02-16T16:47:22.980Z,101643.16
2023-02-16T16:50:30.746Z,101638.16
2023-02-16T16:53:31.039Z,101646.28
2023-02-16T16:56:16.027Z,101641.22
2023-02-16T16:59:01.241Z,101642.56
2023-02-16T17:01:49.898Z,101633.53
2023-02-16T17:04:34.800Z,101647.66
2023-02-16T17:07:19.829Z,101644.72
2023-02-16T17:10:05.287Z,101650.91
2023-02-16T17:12:53.531Z,101642.25
2023-02-16T17:15:58.828Z,101651.06
2023-02-16T17:18:43.803Z,101647.03
2023-02-16T17:21:29.454Z,101653.19
2023-02-16T17:24:15.193Z,101658.53
2023-02-16T17:27:00.107Z,101624.69
2023-02-16T17:29:46.676Z,101652.09
2023-02-16T17:32:32.315Z,101660.88
2023-02-16T17:35:17.724Z,101653.44
2023-02-16T17:38:18.243Z,101639.75
2023-02-16T17:41:03.383Z,101641.06
2023-02-16T17:43:49.352Z,101631.28
2023-02-16T17:46:34.609Z,101623.91
2023-02-16T17:49:20.013Z,101649.00
2023-02-16T17:52:10.110Z,101631.16
2023-02-16T17:54:55.480Z,101656.03
2023-02-16T17:57:40.821Z,101661.09
2023-02-16T18:00:26.141Z,101662.88
2023-02-16T18:03:11.605Z,101663.91
2023-02-16T18:05:56.874Z,101663.97
2023-02-16T18:08:42.011Z,101667.44
2023-02-16T18:11:27.325Z,101664.06
2023-02-16T18:14:14.043Z,101681.47
2023-02-16T18:17:02.003Z,101673.66
2023-02-16T18:19:47.407Z,101680.00
2023-02-16T18:22:32.682Z,101687.84
2023-02-16T18:25:18.513Z,101680.16
2023-02-16T18:28:03.597Z,101683.63
2023-02-16T18:30:50.853Z,101697.03
2023-02-16T18:33:36.336Z,101693.34
2023-02-16T18:36:21.665Z,101690.78
2023-02-16T18:39:08.194Z,101707.28
2023-02-16T18:41:53.307Z,101711.91
2023-02-16T18:44:38.467Z,101722.38
2023-02-16T18:47:23.914Z,101718.09
2023-02-16T18:50:09.503Z,101700.47
2023-02-16T18:52:54.377Z,101714.28
2023-02-16T18:55:39.905Z,101719.75
2023-02-16T18:58:25.082Z,101726.84
2023-02-16T19:01:15.804Z,101701.34
2023-02-16T19:04:02.808Z,101718.44
2023-02-16T19:06:48.352Z,101681.19
2023-02-16T19:09:33.638Z,101688.75
2023-02-16T19:12:18.932Z,101711.97
2023-02-16T19:15:04.298Z,101717.38
2023-02-16T19:17:49.351Z,101714.06
2023-02-16T19:20:35.870Z,101712.75
2023-02-16T19:23:21.277Z,101722.34
2023-02-16T19:26:08.695Z,101719.78
2023-02-16T19:28:54.103Z,101718.84
2023-02-16T19:31:39.690Z,101721.47
2023-02-16T19:34:25.182Z,101696.31
2023-02-16T19:37:10.503Z,101724.25
2023-02-16T19:39:55.712Z,101722.72
2023-02-16T19:42:40.992Z,101713.41
2023-02-16T19:45:26.363Z,101724.63
2023-02-16T19:48:11.759Z,101716.25
2023-02-16T19:50:58.363Z,101748.13
2023-02-16T19:53:43.866Z,101745.56
2023-02-16T19:56:29.021Z,101738.25
2023-02-16T19:59:15.405Z,101759.81
2023-02-16T20:02:00.526Z,101764.22
2023-02-16T20:04:45.681Z,101768.59
2023-02-16T20:07:31.037Z,101767.88
2023-02-16T20:10:16.257Z,101760.75
2023-02-16T20:13:01.553Z,101753.06
2023-02-16T20:15:46.801Z,101757.41
2023-02-16T20:18:32.512Z,101753.06
2023-02-16T20:21:20.760Z,101761.13
2023-02-16T20:24:06.109Z,101771.53
2023-02-16T20:26:52.072Z,101760.28
2023-02-16T20:29:37.550Z,101755.06
2023-02-16T20:32:26.794Z,101755.97
2023-02-16T20:35:11.957Z,101761.13
2023-02-16T20:37:56.909Z,101757.66
2023-02-16T20:40:42.726Z,101729.78
2023-02-16T20:43:27.775Z,101759.50
2023-02-16T20:46:14.881Z,101759.56
2023-02-16T20:49:00.730Z,101762.13
2023-02-16T20:51:46.377Z,101761.44
2023-02-16T20:54:31.644Z,101760.50
2023-02-16T20:57:26.346Z,101755.59
2023-02-16T21:00:17.163Z,101746.25
2023-02-16T21:03:02.169Z,101766.06
2023-02-16T21:05:47.413Z,101768.56
2023-02-16T21:08:32.385Z,101773.06
2023-02-16T21:11:18.440Z,101770.44
2023-02-16T21:14:05.071Z,101769.66
2023-02-16T21:16:50.342Z,101787.06
2023-02-16T21:19:37.888Z,101777.78
2023-02-16T21:22:24.770Z,101803.53
2023-02-16T21:25:09.924Z,101780.50
2023-02-16T21:27:55.210Z,101802.75
2023-02-16T21:30:41.598Z,101805.53
2023-02-16T21:33:26.850Z,101802.06
2023-02-16T21:36:15.223Z,101784.25
2023-02-16T21:39:02.883Z,101790.13
2023-02-16T21:41:48.268Z,101808.44
2023-02-16T21:44:33.421Z,101765.31
2023-02-16T21:47:37.287Z,101776.69
2023-02-16T21:50:22.688Z,101799.81
2023-02-16T21:53:09.291Z,101801.72
2023-02-16T21:56:12.988Z,101806.81
2023-02-16T21:58:58.588Z,101780.38
2023-02-16T22:01:46.037Z,101788.56
2023-02-16T22:04:31.210Z,101781.66
2023-02-16T22:07:16.315Z,101787.09
2023-02-16T22:10:01.550Z,101799.31
2023-02-16T22:12:46.769Z,101817.84
2023-02-16T22:15:31.931Z,101812.72
2023-02-16T22:18:17.111Z,101801.53
2023-02-16T22:21:03.723Z,101804.13
2023-02-16T22:23:48.773Z,101800.69
2023-02-16T22:26:35.447Z,101777.69
2023-02-16T22:29:20.659Z,101786.13
2023-02-16T22:32:05.928Z,101794.75
2023-02-16T22:34:51.476Z,101789.44
2023-02-16T22:37:36.613Z,101794.66
2023-02-16T22:40:21.918Z,101798.06
2023-02-16T22:43:07.077Z,101785.81
2023-02-16T22:45:52.379Z,101777.50
2023-02-16T22:48:38.120Z,101782.38
2023-02-16T22:51:23.072Z,101777.97
2023-02-16T22:54:08.468Z,101768.75
2023-02-16T22:56:53.650Z,101779.81
2023-02-16T22:59:38.757Z,101778.91
2023-02-16T23:02:24.286Z,101760.25
2023-02-16T23:05:09.555Z,101763.63
2023-02-16T23:07:54.821Z,101765.25
2023-02-16T23:10:41.115Z,101776.50
2023-02-16T23:13:32.055Z,101757.78
2023-02-16T23:16:20.030Z,101765.41
2023-02-16T23:19:05.482Z,101755.09
2023-02-16T23:21:50.529Z,101768.59
2023-02-16T23:24:36.342Z,101766.03
2023-02-16T23:27:21.641Z,101765.34
2023-02-16T23:30:07.444Z,101763.50
2023-02-16T23:32:56.322Z,101759.13
2023-02-16T23:35:42.471Z,101764.41
2023-02-16T23:38:27.591Z,101751.63
2023-02-16T23:41:14.112Z,101756.72
2023-02-16T23:44:01.037Z,101744.63
2023-02-16T23:46:46.328Z,101754.03
2023-02-16T23:49:31.454Z,101755.78
2023-02-16T23:52:17.680Z,101751.53
2023-02-16T23:55:02.933Z,101749.72
2023-02-16T23:57:48.099Z,101742.31
